createdAt,value
2019-02-25T00:01:39.325Z,102740.80
2019-02-25T00:04:07.246Z,102737.61
2019-02-25T00:06:35.162Z,102732.31
2019-02-25T00:09:04.487Z,102734.26
2019-02-25T00:11:32.321Z,102728.02
2019-02-25T00:13:59.971Z,102733.61
2019-02-25T00:16:27.582Z,102721.83
2019-02-25T00:18:55.008Z,102720.88
2019-02-25T00:21:22.865Z,102716.18
2019-02-25T00:23:50.166Z,102722.24
2019-02-25T00:26:17.968Z,102723.73
2019-02-25T00:28:45.853Z,102719.43
2019-02-25T00:31:13.216Z,102726.03
2019-02-25T00:33:40.332Z,102738.72
2019-02-25T00:36:08.131Z,102739.77
2019-02-25T00:38:36.043Z,102741.84
2019-02-25T00:41:03.481Z,102740.10
2019-02-25T00:43:31.580Z,102737.94
2019-02-25T00:45:59.827Z,102738.63
2019-02-25T00:48:27.423Z,102742.55
2019-02-25T00:50:55.185Z,102746.52
2019-02-25T00:53:23.261Z,102749.34
2019-02-25T00:55:50.546Z,102746.46
2019-02-25T00:58:17.788Z,102750.83
2019-02-25T01:00:45.574Z,102745.66
2019-02-25T01:03:12.966Z,102744.27
2019-02-25T01:05:41.339Z,102751.51
2019-02-25T01:08:09.414Z,102750.27
2019-02-25T01:10:37.267Z,102749.54
2019-02-25T01:13:08.074Z,102763.11
2019-02-25T01:15:35.769Z,102761.56
2019-02-25T01:18:03.747Z,102757.89
2019-02-25T01:20:31.481Z,102749.86
2019-02-25T01:22:59.175Z,102751.28
2019-02-25T01:25:27.374Z,102754.92
2019-02-25T01:27:54.518Z,102760.38
2019-02-25T01:30:22.682Z,102747.17
2019-02-25T01:32:49.967Z,102752.43
2019-02-25T01:35:17.385Z,102746.36
2019-02-25T01:37:45.289Z,102744.81
2019-02-25T01:40:13.265Z,102750.43
2019-02-25T01:42:40.592Z,102752.06
2019-02-25T01:45:10.075Z,102754.17
2019-02-25T01:47:37.560Z,102742.44
2019-02-25T01:50:05.912Z,102752.81
2019-02-25T01:52:33.822Z,102749.39
2019-02-25T01:55:02.402Z,102742.02
2019-02-25T01:57:30.226Z,102740.34
2019-02-25T01:59:57.991Z,102739.63
2019-02-25T02:02:25.115Z,102735.22
2019-02-25T02:04:53.447Z,102742.84
2019-02-25T02:07:20.799Z,102734.19
2019-02-25T02:09:48.234Z,102733.58
2019-02-25T02:12:16.054Z,102730.03
2019-02-25T02:14:43.313Z,102733.92
2019-02-25T02:17:14.149Z,102737.27
2019-02-25T02:19:41.636Z,102740.57
2019-02-25T02:22:09.374Z,102742.66
2019-02-25T02:24:48.744Z,102742.52
2019-02-25T02:27:16.681Z,102745.69
2019-02-25T02:29:44.920Z,102750.28
2019-02-25T02:32:12.874Z,102749.95
2019-02-25T02:34:41.441Z,102750.96
2019-02-25T02:37:09.155Z,102757.17
2019-02-25T02:39:36.619Z,102762.31
2019-02-25T02:42:22.710Z,102751.08
2019-02-25T02:44:57.438Z,102756.95
2019-02-25T02:47:35.542Z,102757.74
2019-02-25T02:50:04.047Z,102741.19
2019-02-25T02:52:31.482Z,102746.48
2019-02-25T02:54:58.878Z,102747.97
2019-02-25T02:57:26.185Z,102746.00
2019-02-25T02:59:55.792Z,102736.31
2019-02-25T03:02:22.927Z,102735.69
2019-02-25T03:04:50.083Z,102740.08
2019-02-25T03:07:17.622Z,102733.31
2019-02-25T03:09:44.906Z,102727.19
2019-02-25T03:12:12.947Z,102729.03
2019-02-25T03:14:41.176Z,102724.94
2019-02-25T03:17:08.458Z,102727.70
2019-02-25T03:19:35.938Z,102729.33
2019-02-25T03:22:03.337Z,102729.08
2019-02-25T03:24:30.636Z,102723.61
2019-02-25T03:26:58.321Z,102717.98
2019-02-25T03:29:25.767Z,102723.16
2019-02-25T03:31:53.709Z,102722.48
2019-02-25T03:34:21.164Z,102731.76
2019-02-25T03:36:48.738Z,102727.67
2019-02-25T03:39:16.981Z,102734.27
2019-02-25T03:41:44.730Z,102736.03
2019-02-25T03:44:12.775Z,102722.02
2019-02-25T03:46:40.694Z,102720.24
2019-02-25T03:49:08.328Z,102727.59
2019-02-25T03:51:36.651Z,102723.25
2019-02-25T03:54:04.468Z,102727.77
2019-02-25T03:56:32.959Z,102729.11
2019-02-25T03:59:00.645Z,102728.55
2019-02-25T04:01:28.467Z,102729.70
2019-02-25T04:03:55.768Z,102722.15
2019-02-25T04:06:23.733Z,102716.22
2019-02-25T04:08:52.197Z,102718.26
2019-02-25T04:11:20.276Z,102720.77
2019-02-25T04:13:48.101Z,102716.06
2019-02-25T04:16:16.267Z,102730.61
2019-02-25T04:18:43.594Z,102731.91
2019-02-25T04:21:10.995Z,102734.67
2019-02-25T04:23:38.435Z,102727.03
2019-02-25T04:26:08.369Z,102733.06
2019-02-25T04:28:35.972Z,102731.98
2019-02-25T04:31:03.339Z,102735.27
2019-02-25T04:33:30.980Z,102737.39
2019-02-25T04:35:58.648Z,102742.02
2019-02-25T04:38:26.770Z,102745.00
2019-02-25T04:40:53.874Z,102743.73
2019-02-25T04:43:21.573Z,102736.20
2019-02-25T04:45:49.327Z,102741.80
2019-02-25T04:48:19.739Z,102749.17
2019-02-25T04:50:48.004Z,102731.55
2019-02-25T04:53:15.499Z,102741.13
2019-02-25T04:55:43.256Z,102738.37
2019-02-25T04:58:11.348Z,102729.20
2019-02-25T05:00:39.007Z,102723.42
2019-02-25T05:03:06.595Z,102722.64
2019-02-25T05:05:34.559Z,102727.75
2019-02-25T05:08:02.110Z,102735.17
2019-02-25T05:10:29.564Z,102742.39
2019-02-25T05:13:00.437Z,102733.52
2019-02-25T05:15:28.556Z,102729.16
2019-02-25T05:17:55.973Z,102733.52
2019-02-25T05:20:23.658Z,102733.30
2019-02-25T05:22:51.289Z,102730.91
2019-02-25T05:25:19.281Z,102741.15
2019-02-25T05:27:46.584Z,102742.78
2019-02-25T05:30:14.833Z,102739.62
2019-02-25T05:32:42.956Z,102740.48
2019-02-25T05:35:10.864Z,102735.94
2019-02-25T05:37:38.375Z,102745.92
2019-02-25T05:40:10.682Z,102741.01
2019-02-25T05:42:38.246Z,102732.51
2019-02-25T05:45:05.953Z,102734.60
2019-02-25T05:47:33.104Z,102731.36
2019-02-25T05:50:00.310Z,102737.84
2019-02-25T05:52:28.085Z,102748.07
2019-02-25T05:54:56.239Z,102750.02
2019-02-25T05:57:23.905Z,102742.30
2019-02-25T05:59:51.235Z,102740.97
2019-02-25T06:02:18.745Z,102744.66
2019-02-25T06:04:46.579Z,102738.09
2019-02-25T06:07:14.382Z,102733.96
2019-02-25T06:09:42.589Z,102745.47
2019-02-25T06:12:10.124Z,102733.10
2019-02-25T06:14:38.116Z,102731.95
2019-02-25T06:17:05.760Z,102735.67
2019-02-25T06:19:33.406Z,102734.63
2019-02-25T06:22:00.889Z,102734.04
2019-02-25T06:24:28.148Z,102738.06
2019-02-25T06:26:56.022Z,102736.75
2019-02-25T06:29:23.756Z,102738.17
2019-02-25T06:31:51.605Z,102745.77
2019-02-25T06:34:20.836Z,102744.98
2019-02-25T06:36:48.414Z,102745.66
2019-02-25T06:39:15.935Z,102745.55
2019-02-25T06:41:43.614Z,102752.33
2019-02-25T06:44:11.372Z,102755.23
2019-02-25T06:46:39.402Z,102763.84
2019-02-25T06:49:07.079Z,102761.53
2019-02-25T06:51:34.350Z,102756.22
2019-02-25T06:54:01.919Z,102756.52
2019-02-25T06:56:29.611Z,102762.22
2019-02-25T06:58:56.898Z,102761.36
2019-02-25T07:01:24.273Z,102758.56
2019-02-25T07:04:20.747Z,102759.50
2019-02-25T07:06:55.732Z,102760.73
2019-02-25T07:09:39.960Z,102758.61
2019-02-25T07:12:21.903Z,102752.08
2019-02-25T07:14:56.112Z,102761.20
2019-02-25T07:17:33.413Z,102765.56
2019-02-25T07:20:19.174Z,102768.91
2019-02-25T07:23:06.132Z,102758.87
2019-02-25T07:25:55.553Z,102760.16
2019-02-25T07:28:43.013Z,102762.00
2019-02-25T07:31:18.039Z,102754.99
2019-02-25T07:33:56.310Z,102760.20
2019-02-25T07:37:01.226Z,102755.64
2019-02-25T07:39:38.581Z,102751.56
2019-02-25T07:42:11.528Z,102755.78
2019-02-25T07:45:10.209Z,102754.70
2019-02-25T07:48:00.770Z,102748.09
2019-02-25T07:50:47.119Z,102758.89
2019-02-25T07:53:15.664Z,102764.59
2019-02-25T07:56:18.089Z,102768.05
2019-02-25T07:58:56.193Z,102769.17
2019-02-25T08:01:55.521Z,102776.26
2019-02-25T08:04:28.273Z,102780.91
2019-02-25T08:07:03.545Z,102782.01
2019-02-25T08:10:05.489Z,102781.96
2019-02-25T08:12:46.682Z,102782.61
2019-02-25T08:15:23.553Z,102775.75
2019-02-25T08:18:16.177Z,102781.00
2019-02-25T08:20:52.338Z,102781.66
2019-02-25T08:23:38.447Z,102782.87
2019-02-25T08:26:16.234Z,102772.42
2019-02-25T08:29:01.302Z,102778.95
2019-02-25T08:31:42.360Z,102771.98
2019-02-25T08:34:34.934Z,102770.88
2019-02-25T08:37:19.152Z,102769.32
2019-02-25T08:39:57.264Z,102774.56
2019-02-25T08:42:42.009Z,102777.42
2019-02-25T08:45:16.450Z,102770.97
2019-02-25T08:47:56.593Z,102773.69
2019-02-25T08:50:24.551Z,102765.84
2019-02-25T08:52:52.055Z,102773.32
2019-02-25T08:55:19.971Z,102771.42
2019-02-25T08:57:47.815Z,102763.80
2019-02-25T09:00:15.215Z,102765.80
2019-02-25T09:02:48.873Z,102756.70
2019-02-25T09:05:16.786Z,102761.28
2019-02-25T09:07:44.680Z,102750.73
2019-02-25T09:10:13.500Z,102747.03
2019-02-25T09:12:42.071Z,102738.64
2019-02-25T09:15:10.437Z,102730.45
2019-02-25T09:17:43.101Z,102734.55
2019-02-25T09:20:11.210Z,102739.94
2019-02-25T09:22:39.154Z,102736.70
2019-02-25T09:25:07.548Z,102742.28
2019-02-25T09:27:35.599Z,102740.80
2019-02-25T09:30:05.039Z,102742.38
2019-02-25T09:32:33.440Z,102741.86
2019-02-25T09:35:01.000Z,102742.42
2019-02-25T09:37:28.971Z,102746.52
2019-02-25T09:39:56.576Z,102738.28
2019-02-25T09:42:24.514Z,102737.26
2019-02-25T09:44:54.296Z,102740.50
2019-02-25T09:47:21.535Z,102735.66
2019-02-25T09:49:50.957Z,102736.98
2019-02-25T09:52:18.490Z,102727.58
2019-02-25T09:54:46.583Z,102724.52
2019-02-25T09:57:13.995Z,102726.81
2019-02-25T09:59:41.563Z,102718.57
2019-02-25T10:02:09.598Z,102727.38
2019-02-25T10:04:36.962Z,102724.36
2019-02-25T10:07:04.807Z,102724.48
2019-02-25T10:09:32.670Z,102724.67
2019-02-25T10:12:00.260Z,102718.22
2019-02-25T10:14:27.621Z,102717.06
2019-02-25T10:16:55.312Z,102718.88
2019-02-25T10:19:23.042Z,102718.59
2019-02-25T10:21:50.980Z,102712.09
2019-02-25T10:24:20.562Z,102708.98
2019-02-25T10:26:48.306Z,102705.20
2019-02-25T10:29:15.835Z,102704.74
2019-02-25T10:31:43.846Z,102705.06
2019-02-25T10:34:12.076Z,102704.46
2019-02-25T10:36:39.411Z,102693.78
2019-02-25T10:39:12.617Z,102697.63
2019-02-25T10:41:40.810Z,102705.52
2019-02-25T10:44:08.886Z,102707.45
2019-02-25T10:46:36.034Z,102699.07
2019-02-25T10:49:11.219Z,102711.05
2019-02-25T10:51:34.713Z,102707.56
2019-02-25T10:54:02.656Z,102705.94
2019-02-25T10:56:49.394Z,102707.73
2019-02-25T10:59:17.441Z,102701.86
2019-02-25T11:01:45.799Z,102699.30
2019-02-25T11:04:15.428Z,102704.36
2019-02-25T11:06:44.058Z,102697.58
2019-02-25T11:09:24.921Z,102699.09
2019-02-25T11:11:54.894Z,102700.73
2019-02-25T11:14:22.282Z,102701.67
2019-02-25T11:16:50.475Z,102697.87
2019-02-25T11:19:19.173Z,102688.15
2019-02-25T11:21:46.863Z,102693.38
2019-02-25T11:24:16.168Z,102688.00
2019-02-25T11:26:43.975Z,102687.05
2019-02-25T11:29:13.785Z,102680.59
2019-02-25T11:31:41.970Z,102684.60
2019-02-25T11:34:11.677Z,102683.41
2019-02-25T11:36:38.897Z,102680.53
2019-02-25T11:39:09.438Z,102680.98
2019-02-25T11:41:38.895Z,102669.89
2019-02-25T11:44:06.638Z,102671.22
2019-02-25T11:46:34.408Z,102661.42
2019-02-25T11:49:01.830Z,102660.08
2019-02-25T11:51:29.959Z,102653.69
2019-02-25T11:53:59.458Z,102658.55
2019-02-25T11:56:27.065Z,102655.41
2019-02-25T11:58:54.777Z,102658.66
2019-02-25T12:01:22.190Z,102658.38
2019-02-25T12:03:49.949Z,102659.77
2019-02-25T12:06:17.608Z,102655.44
2019-02-25T12:08:45.543Z,102653.20
2019-02-25T12:11:13.214Z,102648.42
2019-02-25T12:13:40.459Z,102658.47
2019-02-25T12:16:08.159Z,102648.40
2019-02-25T12:18:35.471Z,102643.11
2019-02-25T12:21:04.042Z,102649.95
2019-02-25T12:23:31.743Z,102638.58
2019-02-25T12:25:59.853Z,102632.33
2019-02-25T12:28:27.317Z,102632.14
2019-02-25T12:30:54.610Z,102619.28
2019-02-25T12:33:22.215Z,102615.90
2019-02-25T12:35:50.271Z,102615.26
2019-02-25T12:38:18.059Z,102617.14
2019-02-25T12:40:45.818Z,102617.94
2019-02-25T12:43:13.805Z,102622.98
2019-02-25T12:45:42.276Z,102620.19
2019-02-25T12:48:11.310Z,102622.92
2019-02-25T12:50:38.628Z,102618.02
2019-02-25T12:53:06.426Z,102613.55
2019-02-25T12:55:34.586Z,102610.73
2019-02-25T12:58:01.824Z,102606.72
2019-02-25T13:00:30.124Z,102600.73
2019-02-25T13:02:57.385Z,102602.05
2019-02-25T13:05:24.929Z,102596.23
2019-02-25T13:07:52.983Z,102599.59
2019-02-25T13:10:21.215Z,102589.07
2019-02-25T13:12:51.299Z,102586.17
2019-02-25T13:15:18.589Z,102579.88
2019-02-25T13:17:46.185Z,102579.56
2019-02-25T13:20:13.831Z,102578.25
2019-02-25T13:22:41.560Z,102568.65
2019-02-25T13:25:13.332Z,102570.75
2019-02-25T13:27:41.627Z,102562.28
2019-02-25T13:30:12.620Z,102555.31
2019-02-25T13:32:40.095Z,102551.04
2019-02-25T13:35:07.823Z,102548.05
2019-02-25T13:37:35.836Z,102539.98
2019-02-25T13:40:04.886Z,102534.77
2019-02-25T13:42:32.674Z,102530.38
2019-02-25T13:45:00.090Z,102519.09
2019-02-25T13:47:28.213Z,102510.25
2019-02-25T13:49:55.644Z,102506.12
2019-02-25T13:52:23.261Z,102501.73
2019-02-25T13:54:50.501Z,102488.58
2019-02-25T13:57:18.577Z,102484.44
2019-02-25T13:59:45.829Z,102484.57
2019-02-25T14:02:13.206Z,102477.72
2019-02-25T14:04:40.655Z,102473.47
2019-02-25T14:07:08.763Z,102470.11
2019-02-25T14:09:36.639Z,102474.30
2019-02-25T14:12:04.283Z,102463.74
2019-02-25T14:14:31.790Z,102457.83
2019-02-25T14:16:59.853Z,102465.47
2019-02-25T14:19:27.458Z,102463.06
2019-02-25T14:21:56.121Z,102462.88
2019-02-25T14:24:23.921Z,102460.36
2019-02-25T14:26:54.483Z,102458.61
2019-02-25T14:29:21.917Z,102451.28
2019-02-25T14:31:51.104Z,102451.59
2019-02-25T14:34:19.459Z,102448.11
2019-02-25T14:36:48.476Z,102442.11
2019-02-25T14:39:27.833Z,102436.36
2019-02-25T14:41:54.396Z,102431.66
2019-02-25T14:44:21.737Z,102425.63
2019-02-25T14:46:49.503Z,102425.50
2019-02-25T14:49:18.048Z,102418.06
2019-02-25T14:51:47.399Z,102423.84
2019-02-25T14:54:15.693Z,102427.00
2019-02-25T14:56:44.902Z,102431.27
2019-02-25T14:59:15.062Z,102433.14
2019-02-25T15:01:42.192Z,102427.19
2019-02-25T15:04:10.076Z,102424.55
2019-02-25T15:06:37.745Z,102426.18
2019-02-25T15:09:10.360Z,102421.38
2019-02-25T15:11:37.155Z,102420.05
2019-02-25T15:14:06.207Z,102421.06
2019-02-25T15:16:35.765Z,102421.38
2019-02-25T15:19:03.645Z,102428.73
2019-02-25T15:21:31.742Z,102422.69
2019-02-25T15:24:00.503Z,102414.20
2019-02-25T15:26:30.275Z,102412.79
2019-02-25T15:29:00.350Z,102420.06
2019-02-25T15:31:28.124Z,102417.77
2019-02-25T15:33:57.940Z,102418.41
2019-02-25T15:36:26.962Z,102412.31
2019-02-25T15:38:54.576Z,102402.52
2019-02-25T15:41:22.310Z,102402.82
2019-02-25T15:43:49.828Z,102411.09
2019-02-25T15:46:19.597Z,102402.66
2019-02-25T15:48:47.765Z,102402.42
2019-02-25T15:51:18.183Z,102400.26
2019-02-25T15:53:48.640Z,102407.39
2019-02-25T15:56:15.569Z,102405.34
2019-02-25T15:58:43.414Z,102405.34
2019-02-25T16:01:14.294Z,102409.97
2019-02-25T16:03:46.586Z,102404.41
2019-02-25T16:06:14.959Z,102406.52
2019-02-25T16:08:49.869Z,102405.42
2019-02-25T16:11:18.338Z,102402.95
2019-02-25T16:13:46.253Z,102398.69
2019-02-25T16:16:13.623Z,102408.92
2019-02-25T16:18:42.597Z,102406.17
2019-02-25T16:21:11.202Z,102399.67
2019-02-25T16:23:41.317Z,102397.92
2019-02-25T16:26:11.116Z,102399.66
2019-02-25T16:28:39.934Z,102406.55
2019-02-25T16:31:10.563Z,102406.96
2019-02-25T16:33:42.564Z,102404.25
2019-02-25T16:36:10.993Z,102403.78
2019-02-25T16:38:38.241Z,102407.13
2019-02-25T16:41:07.917Z,102409.80
2019-02-25T16:43:36.258Z,102409.48
2019-02-25T16:46:06.124Z,102415.77
2019-02-25T16:48:33.287Z,102415.78
2019-02-25T16:51:02.724Z,102418.67
2019-02-25T16:53:34.693Z,102412.86
2019-02-25T16:56:02.895Z,102411.61
2019-02-25T16:58:32.062Z,102419.47
2019-02-25T17:01:03.189Z,102417.38
2019-02-25T17:03:31.096Z,102419.47
2019-02-25T17:05:58.636Z,102416.00
2019-02-25T17:08:26.469Z,102417.68
2019-02-25T17:10:57.705Z,102414.61
2019-02-25T17:13:25.810Z,102421.73
2019-02-25T17:15:53.838Z,102419.26
2019-02-25T17:18:21.469Z,102419.20
2019-02-25T17:20:50.345Z,102428.48
2019-02-25T17:23:25.083Z,102429.14
2019-02-25T17:25:52.063Z,102435.27
2019-02-25T17:28:20.748Z,102435.51
2019-02-25T17:30:49.703Z,102436.77
2019-02-25T17:33:16.920Z,102442.73
2019-02-25T17:35:45.339Z,102439.06
2019-02-25T17:38:14.110Z,102439.52
2019-02-25T17:40:41.490Z,102438.31
2019-02-25T17:43:11.262Z,102446.86
2019-02-25T17:45:41.057Z,102449.03
2019-02-25T17:48:11.074Z,102451.09
2019-02-25T17:50:39.843Z,102446.03
2019-02-25T17:53:09.738Z,102454.86
2019-02-25T17:55:38.031Z,102447.79
2019-02-25T17:58:05.917Z,102448.20
2019-02-25T18:00:38.787Z,102444.56
2019-02-25T18:03:06.293Z,102450.95
2019-02-25T18:05:35.949Z,102455.73
2019-02-25T18:08:05.342Z,102451.69
2019-02-25T18:10:33.630Z,102446.08
2019-02-25T18:13:05.990Z,102453.44
2019-02-25T18:15:32.322Z,102444.23
2019-02-25T18:18:00.863Z,102448.41
2019-02-25T18:20:28.930Z,102457.58
2019-02-25T18:22:57.263Z,102455.84
2019-02-25T18:25:25.213Z,102460.89
2019-02-25T18:27:53.822Z,102462.23
2019-02-25T18:30:28.191Z,102456.45
2019-02-25T18:32:58.321Z,102464.21
2019-02-25T18:35:26.418Z,102463.69
2019-02-25T18:37:54.086Z,102463.19
2019-02-25T18:40:22.283Z,102461.69
2019-02-25T18:42:50.720Z,102464.75
2019-02-25T18:45:20.485Z,102466.75
2019-02-25T18:47:49.034Z,102465.86
2019-02-25T18:50:19.954Z,102463.19
2019-02-25T18:52:47.844Z,102471.44
2019-02-25T18:55:17.569Z,102465.06
2019-02-25T18:57:46.555Z,102461.11
2019-02-25T19:00:26.324Z,102465.73
2019-02-25T19:02:56.082Z,102460.16
2019-02-25T19:05:25.401Z,102466.17
2019-02-25T19:07:55.411Z,102460.57
2019-02-25T19:10:26.863Z,102462.23
2019-02-25T19:12:56.367Z,102468.91
2019-02-25T19:15:24.757Z,102466.97
2019-02-25T19:17:54.306Z,102470.66
2019-02-25T19:20:22.534Z,102467.08
2019-02-25T19:22:50.421Z,102463.69
2019-02-25T19:25:20.815Z,102463.07
2019-02-25T19:27:49.921Z,102463.07
2019-02-25T19:30:19.772Z,102461.61
2019-02-25T19:32:47.723Z,102466.03
2019-02-25T19:35:17.709Z,102462.97
2019-02-25T19:37:46.769Z,102467.27
2019-02-25T19:40:19.419Z,102463.22
2019-02-25T19:42:49.243Z,102465.72
2019-02-25T19:45:17.633Z,102473.42
2019-02-25T19:47:45.910Z,102471.94
2019-02-25T19:50:13.818Z,102470.76
2019-02-25T19:52:42.035Z,102469.08
2019-02-25T19:55:13.070Z,102470.34
2019-02-25T19:57:42.445Z,102480.44
2019-02-25T20:00:14.872Z,102481.84
2019-02-25T20:02:44.074Z,102479.11
2019-02-25T20:05:12.408Z,102480.47
2019-02-25T20:07:41.103Z,102472.29
2019-02-25T20:10:11.609Z,102470.64
2019-02-25T20:12:39.126Z,102468.95
2019-02-25T20:15:11.259Z,102469.46
2019-02-25T20:17:39.886Z,102469.97
2019-02-25T20:20:10.990Z,102475.94
2019-02-25T20:22:38.791Z,102479.53
2019-02-25T20:25:07.869Z,102477.81
2019-02-25T20:27:35.850Z,102474.59
2019-02-25T20:30:07.149Z,102470.69
2019-02-25T20:32:36.494Z,102476.80
2019-02-25T20:35:06.703Z,102475.45
2019-02-25T20:37:35.787Z,102472.70
2019-02-25T20:40:04.359Z,102474.08
2019-02-25T20:42:32.748Z,102476.98
2019-02-25T20:45:02.762Z,102479.16
2019-02-25T20:47:33.041Z,102474.57
2019-02-25T20:50:03.179Z,102474.53
2019-02-25T20:52:30.222Z,102479.11
2019-02-25T20:54:57.524Z,102476.41
2019-02-25T20:57:25.629Z,102474.02
2019-02-25T20:59:55.286Z,102473.31
2019-02-25T21:02:24.050Z,102471.73
2019-02-25T21:04:53.558Z,102472.08
2019-02-25T21:07:21.514Z,102463.17
2019-02-25T21:09:49.992Z,102466.94
2019-02-25T21:12:20.140Z,102461.78
2019-02-25T21:14:47.537Z,102462.25
2019-02-25T21:17:15.112Z,102458.77
2019-02-25T21:19:44.239Z,102455.23
2019-02-25T21:22:11.730Z,102456.20
2019-02-25T21:24:38.962Z,102448.77
2019-02-25T21:27:08.595Z,102447.85
2019-02-25T21:29:38.825Z,102444.63
2019-02-25T21:32:06.414Z,102441.16
2019-02-25T21:34:34.014Z,102443.20
2019-02-25T21:37:03.009Z,102441.58
2019-02-25T21:39:31.993Z,102437.11
2019-02-25T21:42:00.146Z,102443.28
2019-02-25T21:44:29.043Z,102443.00
2019-02-25T21:46:58.414Z,102443.21
2019-02-25T21:49:27.232Z,102438.41
2019-02-25T21:51:55.507Z,102442.53
2019-02-25T21:54:23.471Z,102440.19
2019-02-25T21:56:51.276Z,102436.52
2019-02-25T21:59:18.713Z,102439.61
2019-02-25T22:01:46.489Z,102440.80
2019-02-25T22:04:15.565Z,102443.58
2019-02-25T22:06:42.838Z,102441.45
2019-02-25T22:09:10.477Z,102442.31
2019-02-25T22:11:37.642Z,102443.07
2019-02-25T22:14:05.033Z,102442.44
2019-02-25T22:16:33.133Z,102441.50
2019-02-25T22:19:00.715Z,102437.52
2019-02-25T22:21:28.447Z,102437.43
2019-02-25T22:24:00.859Z,102435.89
2019-02-25T22:26:29.022Z,102450.80
2019-02-25T22:28:55.780Z,102443.91
2019-02-25T22:31:24.997Z,102446.22
2019-02-25T22:33:52.225Z,102441.48
2019-02-25T22:36:20.233Z,102442.36
2019-02-25T22:38:47.709Z,102439.08
2019-02-25T22:41:16.740Z,102435.91
2019-02-25T22:43:46.477Z,102442.97
2019-02-25T22:46:13.617Z,102435.86
2019-02-25T22:48:43.137Z,102439.14
2019-02-25T22:51:11.086Z,102440.01
2019-02-25T22:53:38.696Z,102436.83
2019-02-25T22:56:09.086Z,102435.89
2019-02-25T22:58:38.295Z,102436.05
2019-02-25T23:01:15.624Z,102446.95
2019-02-25T23:03:44.936Z,102452.06
2019-02-25T23:06:13.473Z,102450.87
2019-02-25T23:08:44.050Z,102448.59
2019-02-25T23:11:14.160Z,102447.07
2019-02-25T23:13:40.520Z,102452.14
2019-02-25T23:16:08.479Z,102452.80
2019-02-25T23:18:35.962Z,102456.41
2019-02-25T23:21:03.780Z,102456.55
2019-02-25T23:23:32.906Z,102445.09
2019-02-25T23:26:01.257Z,102438.88
2019-02-25T23:28:30.501Z,102450.05
2019-02-25T23:30:57.927Z,102448.37
2019-02-25T23:33:27.041Z,102458.34
2019-02-25T23:35:56.004Z,102465.72
2019-02-25T23:38:23.760Z,102467.14
2019-02-25T23:40:51.143Z,102467.20
2019-02-25T23:43:19.070Z,102466.08
2019-02-25T23:45:47.104Z,102460.97
2019-02-25T23:48:14.708Z,102460.29
2019-02-25T23:50:42.123Z,102460.52
2019-02-25T23:53:10.156Z,102467.28
2019-02-25T23:55:37.657Z,102465.75
2019-02-25T23:58:07.701Z,102464.08
